Time;durP1;ratioP1;P1;durP2;ratioP2;P2;SDS_P1;SDS_P2;PMS_P1;PMS_P2;Temp;Humidity;BMP_temperature;BMP_pressure;BME280_temperature;BME280_humidity;BME280_pressure;Samples;Min_cycle;Max_cycle;Signal;HPM_P1;HPM_P2
2022/04/10 00:00:57;;;;;;;14.63;3.70;;;3.80;79.20;;;;;;5065896;28;25048;-76
2022/04/10 00:03:23;;;;;;;13.23;4.57;;;3.80;79.90;;;;;;5075600;28;25076;-78
2022/04/10 00:05:50;;;;;;;11.10;3.75;;;3.80;79.50;;;;;;5073923;28;25086;-75
2022/04/10 00:08:16;;;;;;;10.48;4.47;;;3.70;79.90;;;;;;5051249;28;25054;-72
2022/04/10 00:10:41;;;;;;;9.75;3.85;;;3.70;80.90;;;;;;5071254;28;25050;-73
2022/04/10 00:13:08;;;;;;;14.68;4.03;;;3.70;81.90;;;;;;5049611;28;25147;-75
2022/04/10 00:15:34;;;;;;;11.77;4.20;;;3.70;81.60;;;;;;5066602;28;25100;-75
2022/04/10 00:17:59;;;;;;;21.20;5.15;;;3.70;82.00;;;;;;5067826;28;25069;-73
2022/04/10 00:20:25;;;;;;;12.38;4.20;;;3.60;82.30;;;;;;5054913;28;25070;-72
2022/04/10 00:22:51;;;;;;;12.13;4.35;;;3.70;82.90;;;;;;5065469;28;25055;-73
2022/04/10 00:25:18;;;;;;;10.80;3.72;;;3.70;82.80;;;;;;5075528;28;25144;-74
2022/04/10 00:27:44;;;;;;;11.77;3.70;;;3.80;83.10;;;;;;5083808;28;25056;-73
2022/04/10 00:30:12;;;;;;;9.45;3.80;;;3.80;82.00;;;;;;5095567;28;25073;-75
2022/04/10 00:32:37;;;;;;;15.18;4.50;;;3.80;81.90;;;;;;5095080;28;25069;-75
2022/04/10 00:35:08;;;;;;;10.93;3.45;;;3.70;82.00;;;;;;5095051;28;25052;-76
2022/04/10 00:37:37;;;;;;;15.35;4.00;;;3.60;83.00;;;;;;5091695;28;25116;-74
2022/04/10 00:40:08;;;;;;;11.85;3.88;;;3.60;83.00;;;;;;5071220;28;25063;-74
2022/04/10 00:42:38;;;;;;;16.38;4.07;;;3.60;83.70;;;;;;5069013;28;25074;-75
2022/04/10 00:45:06;;;;;;;10.30;3.80;;;3.60;83.80;;;;;;5049858;28;25070;-73
2022/04/10 00:47:32;;;;;;;15.00;4.20;;;3.50;84.60;;;;;;5067401;28;25067;-73
2022/04/10 00:50:00;;;;;;;14.48;4.72;;;3.50;85.20;;;;;;5058467;28;25148;-73
2022/04/10 00:52:30;;;;;;;12.18;4.38;;;3.50;85.40;;;;;;5074739;28;25098;-74
2022/04/10 00:54:56;;;;;;;11.02;4.05;;;3.50;85.80;;;;;;5060085;28;25078;-73
2022/04/10 00:57:23;;;;;;;15.30;3.83;;;3.40;85.70;;;;;;5071279;28;25093;-73
2022/04/10 00:59:48;;;;;;;14.02;4.72;;;3.40;85.80;;;;;;5065553;28;25070;-73
2022/04/10 01:02:14;;;;;;;11.02;4.07;;;3.30;86.40;;;;;;5051052;28;25065;-75
2022/04/10 01:04:40;;;;;;;18.73;4.13;;;3.30;87.40;;;;;;5070184;28;25076;-74
2022/04/10 01:07:06;;;;;;;14.27;4.07;;;3.30;87.50;;;;;;5070051;28;25112;-73
2022/04/10 01:09:33;;;;;;;11.10;4.25;;;3.20;88.30;;;;;;5070501;28;25185;-73
2022/04/10 01:11:59;;;;;;;7.93;4.25;;;3.30;88.60;;;;;;5069441;28;25088;-73
2022/04/10 01:14:26;;;;;;;15.57;4.35;;;3.30;88.50;;;;;;5070102;28;25150;-73
2022/04/10 01:16:52;;;;;;;14.15;5.82;;;3.30;88.70;;;;;;5070585;28;25057;-74
2022/04/10 01:19:20;;;;;;;14.10;4.25;;;3.20;88.60;;;;;;5070572;28;25071;-72
2022/04/10 01:21:46;;;;;;;15.20;4.88;;;3.20;89.30;;;;;;5070403;28;25048;-74
2022/04/10 01:24:15;;;;;;;15.57;4.38;;;3.20;89.90;;;;;;5068968;28;25079;-71
2022/04/10 01:26:41;;;;;;;14.32;4.32;;;3.10;90.20;;;;;;5069498;28;25094;-73
2022/04/10 01:29:15;;;;;;;13.30;4.53;;;3.10;90.60;;;;;;5051742;28;25095;-73
2022/04/10 01:31:46;;;;;;;17.83;4.53;;;3.10;90.90;;;;;;5069544;28;25074;-74
2022/04/10 01:34:14;;;;;;;16.23;4.70;;;3.10;91.10;;;;;;5052368;28;25156;-75
2022/04/10 01:36:40;;;;;;;15.13;4.28;;;3.10;91.10;;;;;;5064127;28;25051;-73
2022/04/10 01:39:07;;;;;;;11.27;4.20;;;3.00;91.20;;;;;;5076966;28;25086;-74
2022/04/10 01:41:36;;;;;;;8.75;3.90;;;3.00;91.40;;;;;;5071689;28;25076;-73
2022/04/10 01:44:04;;;;;;;10.20;3.88;;;3.00;91.90;;;;;;5070188;28;25072;-73
2022/04/10 01:46:31;;;;;;;12.35;4.70;;;3.00;92.20;;;;;;5071781;28;25074;-72
2022/04/10 01:48:57;;;;;;;9.90;4.25;;;3.00;92.50;;;;;;5073815;28;25112;-72
2022/04/10 01:51:24;;;;;;;8.20;4.20;;;3.00;92.30;;;;;;5059857;28;25083;-75
2022/04/10 01:53:51;;;;;;;12.13;4.00;;;3.00;92.70;;;;;;5060355;28;25065;-74
2022/04/10 01:56:17;;;;;;;10.70;3.78;;;3.00;92.80;;;;;;5072513;28;25053;-74
2022/04/10 01:58:44;;;;;;;10.13;3.70;;;3.10;93.00;;;;;;5081197;28;25059;-74
2022/04/10 02:01:13;;;;;;;11.45;3.83;;;3.10;92.80;;;;;;5069627;28;25100;-75
2022/04/10 02:03:38;;;;;;;10.65;3.67;;;3.10;92.50;;;;;;5069792;28;25073;-72
2022/04/10 02:06:06;;;;;;;9.30;4.05;;;3.10;91.80;;;;;;5080535;28;25090;-74
2022/04/10 02:08:32;;;;;;;12.25;3.38;;;3.10;91.60;;;;;;5074631;28;25083;-73
2022/04/10 02:10:58;;;;;;;9.68;3.47;;;3.00;91.80;;;;;;5089992;28;25067;-73
2022/04/10 02:13:24;;;;;;;11.10;4.38;;;3.10;91.70;;;;;;5070269;28;25090;-73
2022/04/10 02:15:50;;;;;;;8.10;3.72;;;3.10;91.50;;;;;;5060248;28;25065;-72
2022/04/10 02:18:18;;;;;;;11.68;3.65;;;2.90;91.40;;;;;;5065329;28;25073;-75
2022/04/10 02:20:44;;;;;;;11.50;4.10;;;2.90;91.90;;;;;;5064832;28;25166;-75
2022/04/10 02:23:09;;;;;;;8.88;4.03;;;2.90;92.10;;;;;;5069971;28;25056;-74
2022/04/10 02:25:35;;;;;;;7.05;3.40;;;2.90;92.30;;;;;;5070182;28;25075;-75
2022/04/10 02:28:01;;;;;;;12.30;3.85;;;2.90;92.50;;;;;;5068950;28;25054;-76
2022/04/10 02:30:27;;;;;;;7.63;3.95;;;2.80;92.60;;;;;;5064737;28;25063;-73
2022/04/10 02:32:52;;;;;;;8.70;3.40;;;2.90;92.90;;;;;;5060639;28;25056;-74
2022/04/10 02:35:18;;;;;;;15.40;4.82;;;2.80;92.80;;;;;;5062790;28;25176;-73
2022/04/10 02:37:47;;;;;;;7.97;3.60;;;2.70;92.80;;;;;;5068966;28;25101;-76
2022/04/10 02:40:18;;;;;;;10.80;3.97;;;2.70;93.40;;;;;;5061579;28;25067;-74
2022/04/10 02:42:44;;;;;;;11.45;3.88;;;2.80;93.40;;;;;;5070821;28;25056;-75
2022/04/10 02:45:11;;;;;;;15.05;4.13;;;2.80;93.60;;;;;;5089138;28;25080;-74
2022/04/10 02:47:37;;;;;;;16.58;4.20;;;2.90;93.70;;;;;;5067402;28;25068;-75
2022/04/10 02:50:04;;;;;;;9.13;3.45;;;2.90;93.60;;;;;;5067103;28;25115;-75
2022/04/10 02:52:30;;;;;;;11.93;4.22;;;2.90;93.60;;;;;;5082793;28;25073;-75
2022/04/10 02:54:55;;;;;;;20.63;4.25;;;2.90;93.40;;;;;;5069574;28;25072;-74
2022/04/10 02:57:21;;;;;;;14.13;3.90;;;2.90;93.50;;;;;;5069399;28;25068;-74
2022/04/10 02:59:47;;;;;;;13.25;3.58;;;2.90;93.50;;;;;;5068953;28;25065;-73
2022/04/10 03:02:12;;;;;;;10.52;3.80;;;2.90;93.60;;;;;;5068331;28;25176;-74
2022/04/10 03:04:38;;;;;;;13.75;3.78;;;2.90;93.90;;;;;;5068947;28;25159;-74
2022/04/10 03:07:03;;;;;;;9.60;3.67;;;3.00;93.90;;;;;;5068932;28;25179;-74
2022/04/10 03:09:29;;;;;;;10.52;4.20;;;3.00;93.60;;;;;;5081549;28;25057;-73
2022/04/10 03:11:55;;;;;;;13.63;4.18;;;3.00;93.80;;;;;;5086884;28;25051;-74
2022/04/10 03:14:20;;;;;;;10.25;3.70;;;3.10;94.30;;;;;;5059667;28;25059;-74
2022/04/10 03:16:46;;;;;;;8.32;3.60;;;3.10;94.20;;;;;;5051481;28;25122;-74
2022/04/10 03:19:12;;;;;;;11.88;3.70;;;3.20;94.50;;;;;;5068487;28;25130;-72
2022/04/10 03:21:37;;;;;;;11.90;3.15;;;3.20;94.30;;;;;;5069462;28;25155;-74
2022/04/10 03:24:04;;;;;;;12.50;4.32;;;3.30;94.30;;;;;;5048892;28;25073;-73
2022/04/10 03:26:29;;;;;;;11.25;3.40;;;3.30;93.60;;;;;;5050122;28;25114;-74
2022/04/10 03:28:55;;;;;;;9.43;3.28;;;3.30;93.70;;;;;;5068138;28;25093;-73
2022/04/10 03:31:22;;;;;;;11.32;3.55;;;3.40;94.00;;;;;;5068478;28;25125;-75
2022/04/10 03:33:48;;;;;;;13.70;3.33;;;3.40;93.50;;;;;;5033021;28;25074;-73
2022/04/10 03:36:15;;;;;;;7.75;3.40;;;3.50;93.30;;;;;;5057243;28;25071;-75
2022/04/10 03:38:41;;;;;;;9.20;3.10;;;3.50;93.10;;;;;;5050078;28;25048;-76
2022/04/10 03:41:06;;;;;;;9.48;3.13;;;3.50;92.50;;;;;;5051076;28;25055;-77
2022/04/10 03:43:32;;;;;;;11.20;3.25;;;3.40;91.90;;;;;;5063876;28;25050;-74
2022/04/10 03:45:58;;;;;;;11.75;3.75;;;3.40;92.00;;;;;;5088716;28;25075;-73
2022/04/10 03:48:24;;;;;;;9.25;3.70;;;3.30;91.90;;;;;;5049761;28;25073;-72
2022/04/10 03:50:50;;;;;;;9.85;3.35;;;3.20;92.00;;;;;;5067590;28;25054;-73
2022/04/10 03:53:15;;;;;;;14.98;3.58;;;3.20;92.10;;;;;;5068027;28;25091;-73
2022/04/10 03:55:41;;;;;;;12.95;3.65;;;3.30;92.40;;;;;;5067839;28;25111;-75
2022/04/10 03:58:06;;;;;;;7.63;3.35;;;3.30;91.90;;;;;;5068240;28;25113;-74
2022/04/10 04:00:32;;;;;;;11.52;3.13;;;3.20;91.80;;;;;;5078919;28;25091;-74
2022/04/10 04:02:58;;;;;;;7.82;2.95;;;3.10;92.00;;;;;;5067093;28;25136;-74
2022/04/10 04:05:23;;;;;;;12.73;3.17;;;3.10;92.50;;;;;;5072484;28;25051;-75
2022/04/10 04:07:49;;;;;;;12.10;3.20;;;3.20;92.30;;;;;;5069214;28;25062;-73
2022/04/10 04:10:14;;;;;;;9.15;3.00;;;3.10;92.00;;;;;;5069053;28;25129;-74
2022/04/10 04:12:40;;;;;;;8.27;3.22;;;3.10;92.20;;;;;;5068037;28;25154;-74
2022/04/10 04:15:06;;;;;;;9.60;3.30;;;3.10;92.30;;;;;;5071049;28;25063;-75
2022/04/10 04:17:31;;;;;;;8.63;3.17;;;3.10;92.20;;;;;;5080393;28;25073;-76
2022/04/10 04:19:58;;;;;;;10.95;3.28;;;3.10;92.60;;;;;;5073879;28;25125;-75
2022/04/10 04:22:23;;;;;;;10.90;3.65;;;3.10;92.40;;;;;;5068635;28;25150;-73
2022/04/10 04:24:49;;;;;;;13.63;3.75;;;3.10;92.40;;;;;;5068008;28;25068;-74
2022/04/10 04:27:15;;;;;;;12.20;3.20;;;3.10;92.90;;;;;;5067839;28;25059;-76
2022/04/10 04:29:40;;;;;;;9.80;3.17;;;3.20;92.70;;;;;;5067729;28;25079;-76
2022/04/10 04:32:06;;;;;;;16.58;3.22;;;3.20;92.40;;;;;;5065464;28;25136;-75
2022/04/10 04:34:32;;;;;;;7.05;3.20;;;3.20;92.30;;;;;;5053174;28;25103;-74
2022/04/10 04:36:58;;;;;;;10.38;3.20;;;3.20;92.30;;;;;;5072819;28;25058;-74
2022/04/10 04:39:24;;;;;;;10.80;3.83;;;3.20;92.40;;;;;;5071245;28;25137;-75
2022/04/10 04:41:49;;;;;;;11.80;3.42;;;3.30;92.50;;;;;;5072537;28;25084;-74
2022/04/10 04:44:16;;;;;;;13.07;3.20;;;3.30;92.50;;;;;;5070390;28;25143;-74
2022/04/10 04:46:41;;;;;;;9.35;3.30;;;3.30;92.20;;;;;;5085442;28;25066;-75
2022/04/10 04:49:07;;;;;;;8.93;2.88;;;3.20;91.70;;;;;;5053217;28;25049;-74
2022/04/10 04:51:36;;;;;;;8.73;3.33;;;3.20;91.70;;;;;;5063585;28;25069;-73
2022/04/10 04:54:03;;;;;;;9.23;3.13;;;3.10;91.90;;;;;;5058577;28;25096;-74
2022/04/10 04:56:29;;;;;;;9.88;2.88;;;3.10;92.30;;;;;;5054335;28;25069;-74
2022/04/10 04:58:55;;;;;;;11.95;3.30;;;3.10;92.30;;;;;;5070053;28;25119;-74
2022/04/10 05:01:20;;;;;;;5.85;2.83;;;3.10;92.60;;;;;;5070922;28;25105;-75
2022/04/10 05:03:46;;;;;;;12.82;3.35;;;3.10;92.60;;;;;;5051767;28;25061;-75
2022/04/10 05:06:11;;;;;;;12.07;3.65;;;3.10;93.10;;;;;;5074853;28;25068;-74
2022/04/10 05:08:37;;;;;;;12.23;3.78;;;3.20;93.50;;;;;;5070351;28;25148;-75
2022/04/10 05:11:03;;;;;;;13.65;3.58;;;3.20;93.70;;;;;;5070018;28;25092;-76
2022/04/10 05:13:28;;;;;;;14.48;3.40;;;3.30;94.00;;;;;;5056405;28;25065;-73
2022/04/10 05:15:54;;;;;;;7.57;3.65;;;3.30;93.90;;;;;;5056885;28;25059;-74
2022/04/10 05:18:20;;;;;;;13.90;3.33;;;3.30;93.90;;;;;;5055587;28;25051;-74
2022/04/10 05:20:46;;;;;;;7.38;3.33;;;3.30;93.90;;;;;;5054308;28;25097;-74
2022/04/10 05:23:16;;;;;;;12.18;3.53;;;3.20;93.90;;;;;;5056124;28;25065;-74
2022/04/10 05:25:42;;;;;;;10.13;3.40;;;3.20;94.00;;;;;;5065910;28;25076;-73
2022/04/10 05:28:08;;;;;;;9.95;3.28;;;3.20;93.90;;;;;;5059520;28;25063;-74
2022/04/10 05:30:34;;;;;;;11.77;3.88;;;3.20;93.70;;;;;;5050379;28;25109;-75
2022/04/10 05:33:00;;;;;;;9.65;3.28;;;3.20;93.70;;;;;;5044518;28;25109;-74
2022/04/10 05:35:25;;;;;;;10.18;3.70;;;3.20;93.80;;;;;;5053686;28;25138;-74
2022/04/10 05:37:52;;;;;;;10.20;4.03;;;3.20;93.70;;;;;;5057054;28;25080;-75
2022/04/10 05:40:18;;;;;;;10.73;3.42;;;3.20;94.10;;;;;;5053957;28;25117;-73
2022/04/10 05:42:45;;;;;;;10.25;3.67;;;3.30;94.60;;;;;;5039812;28;25089;-74
2022/04/10 05:45:11;;;;;;;9.68;3.55;;;3.40;94.80;;;;;;5053927;28;25058;-73
2022/04/10 05:47:41;;;;;;;10.30;3.17;;;3.40;94.80;;;;;;5053200;28;25071;-74
2022/04/10 05:50:08;;;;;;;7.15;3.00;;;3.60;94.70;;;;;;5060359;28;25064;-75
2022/04/10 05:52:38;;;;;;;12.10;3.45;;;3.70;94.40;;;;;;5054313;28;25097;-74
2022/04/10 05:55:05;;;;;;;8.10;3.13;;;3.70;93.70;;;;;;5056268;28;25067;-74
2022/04/10 05:57:31;;;;;;;9.77;3.80;;;3.70;93.80;;;;;;5039252;28;25119;-73
2022/04/10 05:59:56;;;;;;;9.57;3.15;;;3.70;93.30;;;;;;5059531;28;25123;-74
2022/04/10 06:02:22;;;;;;;13.65;3.80;;;3.70;93.50;;;;;;5082574;28;25100;-76
2022/04/10 06:04:47;;;;;;;10.75;4.18;;;3.80;93.20;;;;;;5064593;28;25058;-75
2022/04/10 06:07:13;;;;;;;14.50;4.30;;;3.90;92.90;;;;;;5051014;28;25084;-76
2022/04/10 06:09:39;;;;;;;9.05;2.78;;;4.10;93.00;;;;;;5059640;28;25094;-75
2022/04/10 06:12:05;;;;;;;11.38;3.50;;;4.20;92.00;;;;;;5054952;28;25109;-75
2022/04/10 06:14:30;;;;;;;10.27;3.28;;;4.30;91.70;;;;;;5053368;28;25057;-75
2022/04/10 06:16:56;;;;;;;9.23;3.30;;;4.40;91.20;;;;;;5053885;28;25059;-74
2022/04/10 06:19:21;;;;;;;8.80;3.15;;;4.40;90.60;;;;;;5057568;28;25072;-75
2022/04/10 06:21:47;;;;;;;7.15;2.83;;;4.50;90.10;;;;;;5063795;28;25076;-75
2022/04/10 06:24:12;;;;;;;12.55;3.38;;;4.50;89.80;;;;;;5037577;28;25080;-74
2022/04/10 06:26:38;;;;;;;11.48;3.22;;;4.60;88.80;;;;;;5052371;28;25084;-78
2022/04/10 06:29:03;;;;;;;11.65;3.88;;;4.80;88.00;;;;;;5071829;28;25050;-74
2022/04/10 06:31:29;;;;;;;14.25;3.35;;;4.90;85.90;;;;;;5074186;28;25070;-74
2022/04/10 06:33:56;;;;;;;13.93;3.75;;;5.00;85.00;;;;;;5062200;28;25152;-74
2022/04/10 06:36:23;;;;;;;8.75;3.55;;;5.10;83.40;;;;;;5073507;28;25137;-75
2022/04/10 06:38:49;;;;;;;12.70;3.30;;;5.20;82.00;;;;;;5066726;28;25083;-74
2022/04/10 06:41:15;;;;;;;7.68;2.92;;;5.40;81.50;;;;;;5066155;28;25071;-74
2022/04/10 06:43:41;;;;;;;10.60;3.65;;;5.50;79.70;;;;;;5077081;28;25134;-75
2022/04/10 06:46:08;;;;;;;9.63;3.28;;;5.50;78.20;;;;;;5073115;28;25068;-75
2022/04/10 06:48:35;;;;;;;9.40;2.90;;;5.60;77.20;;;;;;5073519;28;25068;-75
2022/04/10 06:51:01;;;;;;;13.27;3.15;;;5.70;77.20;;;;;;5072953;28;25065;-74
2022/04/10 06:53:27;;;;;;;9.90;3.28;;;5.90;75.60;;;;;;5055228;28;25060;-76
2022/04/10 06:55:52;;;;;;;7.93;2.33;;;6.00;73.80;;;;;;5074395;28;25054;-75
2022/04/10 06:58:19;;;;;;;10.80;3.35;;;6.20;72.90;;;;;;5074659;28;25090;-74
2022/04/10 07:00:45;;;;;;;13.23;2.85;;;6.10;70.50;;;;;;5057810;28;25083;-73
2022/04/10 07:03:11;;;;;;;12.32;3.80;;;6.10;68.70;;;;;;5079027;28;25069;-77
2022/04/10 07:05:37;;;;;;;7.78;2.75;;;6.20;68.90;;;;;;5082153;28;25101;-72
2022/04/10 07:08:03;;;;;;;7.47;3.22;;;6.30;67.30;;;;;;5082749;28;25065;-73
2022/04/10 07:10:29;;;;;;;7.97;2.72;;;6.30;66.10;;;;;;5075426;28;25077;-72
2022/04/10 07:12:55;;;;;;;12.68;2.50;;;6.40;64.90;;;;;;5090985;28;25087;-74
2022/04/10 07:15:20;;;;;;;11.85;3.00;;;6.50;65.10;;;;;;5094047;28;25076;-74
2022/04/10 07:17:46;;;;;;;7.32;3.10;;;6.70;64.80;;;;;;5095529;28;25066;-73
2022/04/10 07:20:12;;;;;;;8.18;3.08;;;6.80;63.70;;;;;;5087966;28;25176;-71
2022/04/10 07:25:22;;;;;;;12.55;2.83;;;7.00;61.00;;;;;;5084111;28;25072;-76
2022/04/10 07:27:48;;;;;;;7.40;2.90;;;7.00;59.20;;;;;;5084272;28;25065;-74
2022/04/10 07:30:14;;;;;;;8.07;2.47;;;7.10;58.10;;;;;;5081559;28;25097;-76
2022/04/10 07:32:39;;;;;;;11.35;2.75;;;7.20;56.10;;;;;;5058983;28;25062;-73
2022/04/10 07:35:05;;;;;;;11.20;2.25;;;7.30;54.40;;;;;;5060172;28;25101;-74
2022/04/10 07:37:31;;;;;;;14.35;2.40;;;7.30;53.50;;;;;;5072928;28;25073;-74
2022/04/10 07:39:57;;;;;;;10.13;2.00;;;7.40;52.30;;;;;;5072171;28;25134;-74
2022/04/10 07:42:23;;;;;;;8.07;1.90;;;7.50;51.70;;;;;;5075768;28;25121;-73
2022/04/10 07:44:48;;;;;;;9.38;2.30;;;7.60;49.80;;;;;;5092552;28;25147;-74
2022/04/10 07:47:26;;;;;;;7.82;2.30;;;7.70;50.60;;;;;;5061945;28;25067;-75
2022/04/10 07:49:53;;;;;;;11.27;2.58;;;7.80;49.70;;;;;;5072613;28;25068;-73
2022/04/10 07:52:20;;;;;;;9.90;2.75;;;8.00;46.50;;;;;;5075263;28;25079;-73
2022/04/10 07:54:46;;;;;;;8.00;2.72;;;8.10;47.30;;;;;;5073831;28;25107;-75
2022/04/10 07:57:11;;;;;;;11.55;2.45;;;8.00;47.00;;;;;;5070918;28;25065;-74
2022/04/10 07:59:37;;;;;;;8.85;2.53;;;8.00;46.50;;;;;;5071868;28;25053;-74
2022/04/10 08:02:03;;;;;;;13.60;3.30;;;7.90;47.40;;;;;;5082382;28;25093;-74
2022/04/10 08:04:29;;;;;;;8.50;2.90;;;7.50;53.60;;;;;;5086344;28;25073;-73
2022/04/10 08:06:54;;;;;;;14.75;3.58;;;7.20;58.30;;;;;;5074300;28;25093;-73
2022/04/10 08:09:20;;;;;;;10.98;2.83;;;7.20;60.90;;;;;;5041574;28;25062;-73
2022/04/10 08:11:46;;;;;;;14.95;3.13;;;7.40;61.40;;;;;;5058894;28;25131;-74
2022/04/10 08:14:11;;;;;;;7.88;2.92;;;7.70;61.50;;;;;;5059472;28;25072;-74
2022/04/10 08:16:37;;;;;;;9.32;2.90;;;7.80;59.40;;;;;;5066397;28;25061;-74
2022/04/10 08:19:03;;;;;;;11.60;3.03;;;7.60;56.20;;;;;;5071698;28;25085;-73
2022/04/10 08:21:28;;;;;;;9.65;2.55;;;7.60;56.10;;;;;;5060855;28;25079;-73
2022/04/10 08:23:54;;;;;;;7.15;2.25;;;7.60;56.40;;;;;;5055422;28;25122;-73
2022/04/10 08:26:19;;;;;;;9.25;2.63;;;7.80;55.00;;;;;;5040143;28;25100;-73
2022/04/10 08:28:45;;;;;;;12.43;3.00;;;8.10;53.50;;;;;;5061031;28;25056;-73
2022/04/10 08:31:10;;;;;;;9.82;2.75;;;8.20;51.40;;;;;;5058570;28;25063;-73
2022/04/10 08:33:36;;;;;;;7.85;2.40;;;8.40;52.40;;;;;;5062697;28;25068;-73
2022/04/10 08:36:02;;;;;;;11.02;2.40;;;8.90;51.20;;;;;;5050881;28;25073;-73
2022/04/10 08:38:27;;;;;;;12.48;3.00;;;9.00;46.50;;;;;;5061173;28;25107;-72
2022/04/10 08:41:02;;;;;;;5.28;2.63;;;8.50;47.00;;;;;;5061410;28;25054;-74
2022/04/10 08:43:28;;;;;;;10.75;2.50;;;8.80;48.00;;;;;;5059143;28;25061;-73
2022/04/10 08:45:58;;;;;;;11.88;2.35;;;9.00;47.30;;;;;;5058105;28;25072;-73
2022/04/10 08:48:27;;;;;;;9.15;2.55;;;9.40;41.80;;;;;;5058507;28;25099;-71
2022/04/10 08:50:55;;;;;;;5.93;2.20;;;9.30;39.50;;;;;;5049445;28;25111;-71
2022/04/10 08:53:22;;;;;;;6.10;2.13;;;9.30;40.70;;;;;;5062174;28;25062;-73
2022/04/10 08:55:47;;;;;;;4.93;1.80;;;9.60;35.80;;;;;;5053062;28;25077;-74
2022/04/10 08:58:13;;;;;;;5.85;1.85;;;9.20;32.10;;;;;;5051142;28;25104;-72
2022/04/10 09:00:42;;;;;;;5.50;1.80;;;9.40;32.60;;;;;;5071153;28;25134;-73
2022/04/10 09:03:08;;;;;;;10.95;1.45;;;9.80;31.10;;;;;;5064091;28;25116;-72
2022/04/10 09:05:33;;;;;;;5.18;1.80;;;10.00;32.30;;;;;;5060049;28;25138;-70
2022/04/10 09:08:12;;;;;;;11.18;2.00;;;10.90;29.10;;;;;;5059650;28;25051;-70
2022/04/10 09:11:10;;;;;;;6.47;1.40;;;11.40;26.10;;;;;;5064800;28;25156;-70
2022/04/10 09:13:43;;;;;;;8.15;2.10;;;12.10;23.80;;;;;;5063219;28;25058;-73
2022/04/10 09:16:17;;;;;;;6.30;1.67;;;11.60;18.10;;;;;;5060997;28;25076;-70
2022/04/10 09:18:58;;;;;;;5.70;1.20;;;10.20;19.10;;;;;;5058734;28;25116;-71
2022/04/10 09:21:32;;;;;;;3.03;1.30;;;10.00;22.60;;;;;;5060156;28;25146;-71
2022/04/10 09:24:02;;;;;;;3.70;1.50;;;9.70;19.50;;;;;;5056106;28;25080;-71
2022/04/10 09:26:50;;;;;;;8.05;1.52;;;9.60;22.20;;;;;;5060873;28;25170;-72
2022/04/10 09:29:17;;;;;;;7.57;1.52;;;9.60;18.10;;;;;;5055674;28;25167;-73
2022/04/10 09:31:43;;;;;;;9.02;1.55;;;9.30;19.30;;;;;;5054790;28;25063;-71
2022/04/10 09:34:11;;;;;;;6.38;1.48;;;9.20;18.90;;;;;;5064750;28;25066;-71
2022/04/10 09:36:39;;;;;;;5.35;1.50;;;9.40;20.30;;;;;;5056201;28;25119;-71
2022/04/10 09:39:15;;;;;;;5.75;1.30;;;9.90;17.60;;;;;;5060301;28;25134;-70
2022/04/10 09:41:44;;;;;;;5.65;1.35;;;10.60;19.70;;;;;;5056225;28;25066;-71
2022/04/10 09:44:14;;;;;;;4.80;1.30;;;11.60;14.90;;;;;;5053938;28;25161;-71
2022/04/10 09:46:41;;;;;;;7.95;1.58;;;11.50;14.80;;;;;;5052329;28;25171;-72
2022/04/10 09:49:18;;;;;;;3.42;1.65;;;10.90;12.90;;;;;;5046156;28;25150;-72
2022/04/10 09:52:07;;;;;;;7.28;1.60;;;10.60;11.90;;;;;;5051627;28;25059;-70
2022/04/10 09:54:37;;;;;;;5.35;2.10;;;9.90;13.20;;;;;;5049480;28;25146;-71
2022/04/10 09:57:09;;;;;;;4.22;1.30;;;10.00;14.60;;;;;;5054573;28;25086;-71
2022/04/10 09:59:37;;;;;;;7.32;1.90;;;9.70;13.30;;;;;;5051575;28;25092;-72
2022/04/10 10:02:06;;;;;;;3.53;1.08;;;9.40;14.70;;;;;;5057884;28;25083;-73
2022/04/10 10:04:34;;;;;;;5.03;1.02;;;9.30;14.60;;;;;;5037456;28;25080;-71
2022/04/10 10:07:03;;;;;;;4.20;1.10;;;9.60;13.20;;;;;;5072693;28;25166;-72
2022/04/10 10:09:32;;;;;;;3.97;1.00;;;9.90;12.80;;;;;;5058074;28;25056;-71
2022/04/10 10:12:00;;;;;;;5.38;1.40;;;10.60;10.80;;;;;;5070684;28;25066;-72
2022/04/10 10:14:28;;;;;;;3.42;1.38;;;11.20;11.20;;;;;;5072365;28;25059;-71
2022/04/10 10:16:55;;;;;;;4.57;1.48;;;11.80;8.00;;;;;;5072458;28;25050;-71
2022/04/10 10:19:20;;;;;;;4.28;1.13;;;12.10;5.80;;;;;;5075844;28;25102;-72
2022/04/10 10:21:46;;;;;;;4.85;0.95;;;12.50;4.80;;;;;;5076985;28;25129;-71
2022/04/10 10:24:13;;;;;;;3.72;1.30;;;12.80;1.80;;;;;;5057619;28;25122;-72
2022/04/10 10:27:08;;;;;;;8.05;1.70;;;13.00;1.00;;;;;;5073432;28;25055;-74
2022/04/10 10:29:55;;;;;;;6.82;1.02;;;12.20;1.00;;;;;;5060762;28;25059;-70
2022/04/10 10:32:42;;;;;;;5.72;1.33;;;11.90;1.20;;;;;;5066771;28;25074;-74
2022/04/10 10:35:30;;;;;;;2.55;1.10;;;11.40;2.40;;;;;;5063400;28;25073;-72
2022/04/10 10:37:56;;;;;;;2.05;1.27;;;11.00;1.00;;;;;;5072544;28;25101;-73
2022/04/10 10:40:22;;;;;;;5.38;1.42;;;11.00;2.30;;;;;;5057631;28;25061;-73
2022/04/10 10:42:51;;;;;;;4.85;1.30;;;10.90;1.10;;;;;;5055134;28;25071;-72
2022/04/10 10:45:36;;;;;;;5.88;1.23;;;11.10;1.00;;;;;;5050334;28;25104;-73
2022/04/10 10:48:29;;;;;;;5.18;1.20;;;11.40;1.00;;;;;;5034634;28;25079;-72
2022/04/10 10:51:08;;;;;;;7.85;1.70;;;11.40;1.20;;;;;;5053000;28;25074;-71
2022/04/10 10:53:44;;;;;;;2.70;1.30;;;11.30;1.00;;;;;;5048555;28;25052;-71
2022/04/10 10:56:31;;;;;;;3.15;1.42;;;11.40;1.00;;;;;;5049680;28;25072;-71
2022/04/10 10:59:39;;;;;;;6.60;1.30;;;12.20;1.00;;;;;;5050163;28;25094;-73
2022/04/10 11:02:13;;;;;;;4.53;1.35;;;12.40;1.00;;;;;;5055472;28;25064;-73
2022/04/10 11:04:44;;;;;;;4.80;1.45;;;11.90;1.00;;;;;;5053302;28;25074;-73
2022/04/10 11:07:18;;;;;;;7.85;1.23;;;12.10;1.00;;;;;;5049646;28;25073;-73
2022/04/10 11:09:47;;;;;;;5.38;1.50;;;12.90;1.00;;;;;;5064997;28;25143;-72
2022/04/10 11:12:14;;;;;;;4.90;1.50;;;11.60;1.00;;;;;;5068962;28;25068;-73
2022/04/10 11:14:40;;;;;;;4.97;1.40;;;11.40;1.00;;;;;;5067007;28;25060;-72
2022/04/10 11:17:09;;;;;;;6.63;1.73;;;11.40;1.00;;;;;;5069216;28;25158;-72
2022/04/10 11:19:36;;;;;;;2.95;1.38;;;11.20;1.00;;;;;;5070532;28;25098;-73
2022/04/10 11:22:02;;;;;;;3.63;1.38;;;10.70;1.00;;;;;;5052528;28;25128;-71
2022/04/10 11:24:29;;;;;;;4.93;1.10;;;10.50;2.00;;;;;;5068768;28;25061;-72
2022/04/10 11:26:54;;;;;;;5.95;1.27;;;10.30;1.00;;;;;;5070098;28;25052;-72
2022/04/10 11:29:20;;;;;;;6.03;1.58;;;10.30;1.00;;;;;;5069734;28;25071;-71
2022/04/10 11:31:52;;;;;;;5.95;1.60;;;10.50;1.40;;;;;;5054807;28;25069;-72
2022/04/10 11:34:22;;;;;;;7.27;1.50;;;11.30;1.00;;;;;;5045836;28;25088;-73
2022/04/10 11:36:48;;;;;;;5.80;1.75;;;11.00;1.00;;;;;;5055758;28;25149;-72
2022/04/10 11:39:16;;;;;;;9.50;1.92;;;11.10;1.00;;;;;;5051813;28;25063;-71
2022/04/10 11:41:42;;;;;;;3.72;1.50;;;11.90;1.00;;;;;;5068852;28;25129;-71
2022/04/10 11:44:09;;;;;;;5.45;1.20;;;11.70;1.00;;;;;;5068254;28;25097;-71
2022/04/10 11:46:36;;;;;;;2.13;0.93;;;11.80;1.00;;;;;;5051058;28;25057;-71
2022/04/10 11:49:03;;;;;;;6.78;1.65;;;12.00;1.00;;;;;;5069074;28;25062;-72
2022/04/10 11:51:29;;;;;;;4.60;1.42;;;12.00;1.00;;;;;;5070175;28;25096;-73
2022/04/10 11:53:55;;;;;;;2.25;1.33;;;12.60;1.00;;;;;;5068600;28;25092;-71
2022/04/10 11:56:21;;;;;;;8.32;1.80;;;12.50;1.00;;;;;;5068241;28;25072;-72
2022/04/10 11:58:47;;;;;;;5.05;1.40;;;13.10;1.00;;;;;;5051367;28;25066;-72
2022/04/10 12:01:14;;;;;;;3.85;1.60;;;11.90;1.00;;;;;;5069985;28;25067;-72
2022/04/10 12:03:41;;;;;;;8.48;2.05;;;10.90;1.00;;;;;;5068791;28;25095;-72
2022/04/10 12:06:08;;;;;;;6.68;1.98;;;10.60;1.00;;;;;;5050774;28;25054;-72
2022/04/10 12:08:35;;;;;;;5.20;1.55;;;10.90;1.00;;;;;;5068686;28;25052;-72
2022/04/10 12:11:02;;;;;;;5.13;1.63;;;11.60;1.00;;;;;;5069139;28;25107;-73
2022/04/10 12:13:37;;;;;;;5.32;1.63;;;12.00;1.00;;;;;;5073681;28;25058;-70
2022/04/10 12:16:16;;;;;;;5.57;1.50;;;12.60;1.00;;;;;;5078191;28;25050;-72
2022/04/10 12:18:49;;;;;;;5.75;1.48;;;13.60;1.00;;;;;;5071866;28;25273;-70
2022/04/10 12:21:16;;;;;;;5.32;1.40;;;14.30;1.00;;;;;;5069678;28;25146;-71
2022/04/10 12:23:41;;;;;;;3.92;1.50;;;14.70;1.00;;;;;;5069970;28;25100;-72
2022/04/10 12:26:08;;;;;;;4.90;1.50;;;14.70;1.00;;;;;;5069089;28;25164;-72
2022/04/10 12:28:34;;;;;;;5.15;1.75;;;15.30;1.00;;;;;;5068876;28;25163;-72
2022/04/10 12:31:01;;;;;;;6.65;1.70;;;15.00;1.00;;;;;;5070150;28;25079;-71
2022/04/10 12:33:31;;;;;;;3.95;1.52;;;15.10;1.00;;;;;;5051433;28;25060;-70
2022/04/10 12:35:56;;;;;;;3.67;1.52;;;15.40;1.00;;;;;;5069759;28;25102;-72
2022/04/10 12:38:28;;;;;;;5.05;1.52;;;15.70;1.00;;;;;;5050562;28;25127;-70
2022/04/10 12:41:05;;;;;;;3.53;1.50;;;15.70;1.00;;;;;;5070365;28;25133;-72
2022/04/10 12:43:31;;;;;;;3.70;1.40;;;15.60;1.00;;;;;;5069194;28;25067;-71
2022/04/10 12:46:11;;;;;;;5.38;1.67;;;15.30;1.00;;;;;;5070225;28;25065;-70
2022/04/10 12:48:37;;;;;;;3.78;1.55;;;14.80;1.00;;;;;;5069708;28;25055;-72
2022/04/10 12:51:07;;;;;;;3.47;1.45;;;14.50;1.00;;;;;;5050371;28;25102;-71
2022/04/10 12:53:33;;;;;;;2.17;1.08;;;15.10;1.00;;;;;;5067763;28;25056;-71
2022/04/10 12:55:59;;;;;;;2.63;1.45;;;15.50;1.00;;;;;;5069727;28;25070;-72
2022/04/10 12:58:29;;;;;;;3.60;1.40;;;14.80;1.00;;;;;;5071800;28;25128;-70